Terminal Aerodrome Forecast
Issued by NWS

Current Version | Previous Version | Text Only | Print | Product List | Glossary On
Versions: 1 2 3 4 5 6 7 8 9 10 11 12 13 14 15 16 17 18 19 20 21 22 23 24 25
000
FTUS44 KOUN 302320
TAFWWR
TAF
KWWR 302320Z 3100/3124 15010KT P6SM BKN250
     FM311100 07006KT P6SM BKN015 PROB30 3113/3119 3SM TSRA BKN025CB
      AMD NOT SKED=

USA.gov is the U.S. government's official web portal to all federal, state and local government web resources and services.